Time;durP1;ratioP1;P1;durP2;ratioP2;P2;SDS_P1;SDS_P2;PMS_P1;PMS_P2;Temp;Humidity;BMP_temperature;BMP_pressure;BME280_temperature;BME280_humidity;BME280_pressure;Samples;Min_cycle;Max_cycle;Signal;HPM_P1;HPM_P2
2022/07/16 00:02:00;;;;;;;4.37;2.27;;;17.70;99.90;;;;;;6179430;23;20215;-84
2022/07/16 00:04:27;;;;;;;3.73;1.87;;;17.60;1.00;;;;;;6176639;23;20303;-86
2022/07/16 00:06:54;;;;;;;4.70;2.00;;;17.50;1.00;;;;;;6154519;23;20188;-86
2022/07/16 00:09:21;;;;;;;5.60;2.10;;;17.60;1.00;;;;;;6182182;23;20257;-85
2022/07/16 00:11:48;;;;;;;5.27;2.63;;;17.60;1.00;;;;;;6152187;23;20167;-86
2022/07/16 00:14:14;;;;;;;4.83;2.10;;;17.60;1.00;;;;;;6153356;23;20165;-85
2022/07/16 00:16:41;;;;;;;2.67;1.83;;;17.40;1.00;;;;;;6151797;23;20745;-85
2022/07/16 00:19:18;;;;;;;5.10;2.47;;;17.60;1.00;;;;;;6128502;23;20209;-81
2022/07/16 00:21:52;;;;;;;4.60;3.10;;;17.60;1.00;;;;;;6175042;23;20584;-81
2022/07/16 00:24:20;;;;;;;2.40;2.20;;;17.40;1.00;;;;;;6150062;23;20487;-84
2022/07/16 00:26:47;;;;;;;2.57;2.20;;;17.50;1.00;;;;;;6153473;23;20214;-85
2022/07/16 00:29:15;;;;;;;3.17;2.63;;;17.20;1.00;;;;;;6178598;23;20220;-86
2022/07/16 00:31:43;;;;;;;4.37;2.47;;;17.30;1.00;;;;;;6153144;23;20257;-86
2022/07/16 00:34:10;;;;;;;4.93;2.53;;;17.30;1.00;;;;;;6152714;23;20252;-86
2022/07/16 00:36:38;;;;;;;5.03;2.40;;;17.40;1.00;;;;;;6151102;23;20226;-85
2022/07/16 00:39:07;;;;;;;2.17;1.97;;;17.50;1.00;;;;;;6152589;23;20543;-86
2022/07/16 00:41:36;;;;;;;4.50;2.30;;;17.60;1.00;;;;;;6150489;23;20449;-86
2022/07/16 00:44:08;;;;;;;4.20;2.47;;;17.50;1.00;;;;;;6152737;23;20637;-85
2022/07/16 00:46:36;;;;;;;3.17;2.27;;;17.50;1.00;;;;;;6179286;23;20173;-85
2022/07/16 00:49:04;;;;;;;2.63;2.37;;;17.50;1.00;;;;;;6187454;23;20199;-84
2022/07/16 00:51:32;;;;;;;4.70;2.67;;;17.50;1.00;;;;;;6159324;23;20237;-86
2022/07/16 00:53:59;;;;;;;3.80;2.17;;;17.40;1.00;;;;;;6186288;23;20214;-86
2022/07/16 00:56:27;;;;;;;3.37;2.20;;;17.30;1.00;;;;;;6185761;23;20226;-85
2022/07/16 00:58:54;;;;;;;2.83;1.83;;;17.30;1.00;;;;;;6213541;23;20164;-84
2022/07/16 01:01:22;;;;;;;3.00;2.17;;;17.30;1.00;;;;;;6184492;23;20188;-86
2022/07/16 01:03:49;;;;;;;3.57;2.03;;;17.50;1.00;;;;;;6184540;23;20184;-81
2022/07/16 01:06:17;;;;;;;4.13;2.00;;;17.40;93.00;;;;;;6211347;23;20199;-85
2022/07/16 01:08:46;;;;;;;5.57;2.53;;;17.30;1.00;;;;;;6185334;23;20611;-84
2022/07/16 01:11:18;;;;;;;3.97;2.10;;;17.20;1.00;;;;;;6183172;23;20658;-85
2022/07/16 01:13:47;;;;;;;2.43;2.00;;;17.40;99.90;;;;;;6212580;23;20234;-84
2022/07/16 01:16:15;;;;;;;5.73;2.00;;;17.40;99.90;;;;;;6185455;23;20164;-85
2022/07/16 01:18:43;;;;;;;3.67;2.17;;;17.40;1.00;;;;;;6185270;23;20161;-85
2022/07/16 01:21:12;;;;;;;4.23;2.40;;;17.50;1.00;;;;;;6159771;23;20235;-85
2022/07/16 01:23:39;;;;;;;4.17;1.90;;;17.40;99.90;;;;;;6160840;23;20521;-85
2022/07/16 01:26:06;;;;;;;2.93;2.00;;;17.30;99.90;;;;;;6185475;23;20167;-84
2022/07/16 01:28:33;;;;;;;5.57;2.00;;;17.20;16.40;;;;;;6212300;23;20164;-85
2022/07/16 01:31:00;;;;;;;2.50;1.80;;;17.20;99.90;;;;;;6186125;23;20503;-85
2022/07/16 01:33:31;;;;;;;2.63;1.90;;;17.10;99.90;;;;;;6186352;23;20161;-87
2022/07/16 01:36:10;;;;;;;5.07;2.10;;;17.10;2.40;;;;;;6186757;23;20168;-85
2022/07/16 01:38:45;;;;;;;3.10;2.33;;;17.20;99.90;;;;;;6185614;23;20637;-86
2022/07/16 01:41:13;;;;;;;2.60;2.20;;;17.30;99.90;;;;;;6184762;23;20253;-86
2022/07/16 01:43:40;;;;;;;3.20;2.60;;;17.10;1.00;;;;;;6186246;23;20195;-86
2022/07/16 01:46:07;;;;;;;4.63;2.30;;;17.10;1.00;;;;;;6185809;23;20179;-85
2022/07/16 01:48:34;;;;;;;5.47;2.87;;;17.10;99.90;;;;;;6162064;23;20230;-87
2022/07/16 01:51:01;;;;;;;4.47;1.80;;;17.20;1.00;;;;;;6182462;23;20200;-85
2022/07/16 01:53:29;;;;;;;3.47;2.40;;;17.20;99.90;;;;;;6183461;23;20161;-85
2022/07/16 01:55:58;;;;;;;3.83;2.20;;;17.10;1.00;;;;;;6157996;23;20164;-85
2022/07/16 01:58:25;;;;;;;2.10;2.00;;;17.10;1.00;;;;;;6158388;23;20178;-87
2022/07/16 02:00:53;;;;;;;2.77;2.30;;;17.10;1.00;;;;;;6183153;23;20275;-84
2022/07/16 02:03:20;;;;;;;4.87;2.50;;;16.90;1.00;;;;;;6185516;23;20186;-85
2022/07/16 02:05:47;;;;;;;2.37;1.90;;;16.90;96.30;;;;;;6161786;23;20234;-84
2022/07/16 02:08:14;;;;;;;3.53;2.43;;;17.00;1.00;;;;;;6164393;23;20162;-85
2022/07/16 02:10:42;;;;;;;3.83;2.33;;;17.00;1.00;;;;;;6192770;23;20218;-86
2022/07/16 02:13:09;;;;;;;2.73;2.40;;;17.20;99.90;;;;;;6174682;23;20172;-85
2022/07/16 02:15:36;;;;;;;3.43;2.33;;;17.20;99.90;;;;;;6198576;23;20172;-82
2022/07/16 02:18:03;;;;;;;2.97;2.40;;;17.30;99.90;;;;;;6221418;23;20167;-85
2022/07/16 02:20:31;;;;;;;4.10;2.50;;;17.50;79.50;;;;;;6192464;23;20196;-85
2022/07/16 02:22:57;;;;;;;2.40;2.20;;;17.40;1.00;;;;;;6215512;23;20271;-85
2022/07/16 02:25:24;;;;;;;3.97;2.33;;;17.20;99.90;;;;;;6165455;23;20167;-86
2022/07/16 02:28:07;;;;;;;5.23;2.40;;;17.20;1.00;;;;;;6189099;23;20161;-83
2022/07/16 02:30:37;;;;;;;8.10;3.50;;;17.20;99.90;;;;;;6143312;23;20294;-85
2022/07/16 02:33:05;;;;;;;4.37;2.47;;;17.20;99.90;;;;;;6187147;23;20168;-85
2022/07/16 02:35:33;;;;;;;4.57;2.47;;;17.30;1.00;;;;;;6185385;23;20189;-85
2022/07/16 02:38:00;;;;;;;3.23;2.70;;;17.20;1.00;;;;;;6211551;23;20162;-84
2022/07/16 02:40:27;;;;;;;3.07;2.87;;;17.10;99.90;;;;;;6158527;23;20199;-84
2022/07/16 02:42:55;;;;;;;3.10;2.50;;;17.20;1.00;;;;;;6185413;23;20178;-85
2022/07/16 02:45:22;;;;;;;2.43;2.10;;;17.20;1.00;;;;;;6136030;23;20204;-84
2022/07/16 02:47:49;;;;;;;4.50;2.33;;;17.30;99.90;;;;;;6158768;23;20158;-85
2022/07/16 02:50:16;;;;;;;4.03;2.23;;;17.30;1.00;;;;;;6126600;23;20678;-85
2022/07/16 02:52:44;;;;;;;5.07;2.40;;;17.30;99.90;;;;;;6152901;23;20175;-83
2022/07/16 02:55:11;;;;;;;3.67;2.20;;;17.40;1.00;;;;;;6179090;23;20275;-86
2022/07/16 02:57:38;;;;;;;2.47;2.17;;;17.40;1.00;;;;;;6153128;23;20163;-84
2022/07/16 03:00:07;;;;;;;4.80;2.53;;;17.50;1.00;;;;;;6150924;23;20167;-84
2022/07/16 03:02:34;;;;;;;3.33;2.47;;;17.50;99.90;;;;;;6151878;23;20236;-84
2022/07/16 03:05:01;;;;;;;3.00;2.60;;;17.40;99.90;;;;;;6150970;23;20239;-84
2022/07/16 03:07:28;;;;;;;2.83;2.50;;;17.30;1.00;;;;;;6152414;23;20668;-85
2022/07/16 03:09:55;;;;;;;5.17;2.83;;;17.30;1.00;;;;;;6149919;23;20168;-83
2022/07/16 03:12:22;;;;;;;2.37;2.10;;;17.40;1.00;;;;;;6151792;23;20441;-85
2022/07/16 03:14:49;;;;;;;3.00;2.67;;;17.40;1.00;;;;;;6152888;23;20165;-85
2022/07/16 03:17:16;;;;;;;3.67;2.10;;;17.30;1.00;;;;;;6153607;23;20229;-85
2022/07/16 03:19:43;;;;;;;3.77;2.40;;;17.40;1.00;;;;;;6152352;23;20561;-83
2022/07/16 03:22:10;;;;;;;4.63;2.27;;;17.40;1.00;;;;;;6152954;23;20158;-83
2022/07/16 03:24:37;;;;;;;5.40;2.83;;;17.50;1.00;;;;;;6150566;23;20194;-85
2022/07/16 03:27:04;;;;;;;2.53;2.30;;;17.40;1.00;;;;;;6152733;23;20245;-85
2022/07/16 03:29:31;;;;;;;4.53;3.03;;;17.30;99.90;;;;;;6152907;23;20162;-85
2022/07/16 03:31:58;;;;;;;4.10;2.70;;;17.50;1.00;;;;;;6153767;23;20251;-84
2022/07/16 03:34:25;;;;;;;7.63;2.70;;;17.60;1.00;;;;;;6177614;23;20174;-84
2022/07/16 03:36:51;;;;;;;5.87;2.90;;;17.60;1.00;;;;;;6177729;23;20186;-86
2022/07/16 03:39:18;;;;;;;4.27;2.77;;;17.70;1.00;;;;;;6151651;23;20182;-86
2022/07/16 03:41:45;;;;;;;3.73;2.90;;;17.80;1.00;;;;;;6175962;23;20190;-87
2022/07/16 03:44:12;;;;;;;5.40;3.17;;;17.80;1.00;;;;;;6154003;23;20190;-86
2022/07/16 03:46:40;;;;;;;3.87;2.80;;;17.80;33.00;;;;;;6154368;23;20174;-85
2022/07/16 03:49:08;;;;;;;4.47;2.80;;;17.80;1.00;;;;;;6152834;23;20569;-85
2022/07/16 03:51:35;;;;;;;4.37;3.03;;;17.80;1.00;;;;;;6152002;23;20168;-85
2022/07/16 03:54:03;;;;;;;4.50;3.00;;;17.90;1.00;;;;;;6152167;23;20249;-84
2022/07/16 03:56:31;;;;;;;7.20;2.90;;;17.90;1.00;;;;;;6126128;23;20180;-85
2022/07/16 03:58:58;;;;;;;4.20;3.23;;;17.80;99.90;;;;;;6153507;23;20166;-85
2022/07/16 04:01:25;;;;;;;5.17;3.50;;;17.80;12.00;;;;;;6154255;23;20229;-86
2022/07/16 04:03:52;;;;;;;6.67;3.67;;;17.80;99.90;;;;;;6160474;23;20977;-83
2022/07/16 04:06:20;;;;;;;4.50;3.67;;;17.90;99.90;;;;;;6135194;23;20191;-86
2022/07/16 04:08:47;;;;;;;6.37;4.00;;;17.90;1.00;;;;;;6131066;23;20171;-85
2022/07/16 04:11:14;;;;;;;5.73;3.73;;;18.00;1.00;;;;;;6155932;23;20197;-85
2022/07/16 04:13:41;;;;;;;5.90;3.87;;;17.90;1.00;;;;;;6129423;23;20169;-85
2022/07/16 04:16:09;;;;;;;8.00;4.10;;;17.90;50.70;;;;;;6152814;23;20171;-85
2022/07/16 04:18:36;;;;;;;7.90;3.73;;;18.00;99.90;;;;;;6129078;23;20481;-82
2022/07/16 04:21:05;;;;;;;7.50;3.73;;;18.00;99.90;;;;;;6150724;23;20171;-84
2022/07/16 04:23:33;;;;;;;4.63;3.40;;;18.10;1.00;;;;;;6177898;23;20218;-85
2022/07/16 04:26:00;;;;;;;4.77;3.40;;;18.10;1.00;;;;;;6127103;23;20171;-84
2022/07/16 04:28:28;;;;;;;4.77;3.33;;;18.00;99.90;;;;;;6153398;23;20229;-85
2022/07/16 04:30:56;;;;;;;8.00;3.73;;;18.10;1.00;;;;;;6128029;23;20200;-83
2022/07/16 04:33:23;;;;;;;5.70;3.20;;;18.10;99.90;;;;;;6129422;23;20634;-85
2022/07/16 04:35:50;;;;;;;7.77;3.07;;;18.10;1.00;;;;;;6152647;23;20168;-82
2022/07/16 04:38:18;;;;;;;6.10;3.13;;;18.10;99.90;;;;;;6152979;23;20544;-85
2022/07/16 04:40:45;;;;;;;2.77;2.50;;;18.10;99.90;;;;;;6152683;23;20204;-86
2022/07/16 04:43:12;;;;;;;4.40;2.57;;;18.10;1.00;;;;;;6179959;23;20265;-85
2022/07/16 04:45:39;;;;;;;4.33;3.17;;;18.00;99.90;;;;;;6130026;23;20175;-86
2022/07/16 04:48:06;;;;;;;4.03;3.00;;;17.90;99.90;;;;;;6129799;23;20517;-86
2022/07/16 04:50:33;;;;;;;2.90;2.30;;;17.80;1.00;;;;;;6146069;23;20203;-85
2022/07/16 04:53:00;;;;;;;6.17;3.13;;;17.90;1.00;;;;;;6158149;23;20163;-86
2022/07/16 04:55:28;;;;;;;3.20;2.57;;;17.70;1.00;;;;;;6181795;23;20490;-86
2022/07/16 04:57:55;;;;;;;4.17;2.70;;;17.60;1.00;;;;;;6157243;23;20165;-86
2022/07/16 05:00:26;;;;;;;6.07;2.60;;;17.60;1.00;;;;;;6135044;23;20234;-86
2022/07/16 05:02:56;;;;;;;3.20;2.53;;;17.70;1.00;;;;;;6133877;23;20178;-84
2022/07/16 05:05:29;;;;;;;4.43;2.57;;;17.70;1.00;;;;;;6157888;23;20615;-85
2022/07/16 05:07:56;;;;;;;3.77;2.77;;;17.60;83.50;;;;;;6181108;23;20619;-85
2022/07/16 05:10:24;;;;;;;5.37;2.40;;;17.80;1.00;;;;;;6156548;23;20179;-85
2022/07/16 05:12:52;;;;;;;4.33;2.73;;;17.80;1.00;;;;;;6207708;23;20175;-85
2022/07/16 05:15:20;;;;;;;7.73;2.83;;;17.70;1.00;;;;;;6156855;23;20171;-86
2022/07/16 05:17:47;;;;;;;3.10;2.30;;;17.70;1.00;;;;;;6182550;23;20163;-84
2022/07/16 05:20:15;;;;;;;2.60;2.40;;;17.60;99.90;;;;;;6181737;23;20218;-85
2022/07/16 05:22:42;;;;;;;3.00;2.47;;;17.70;99.90;;;;;;6181137;23;20175;-82
2022/07/16 05:25:10;;;;;;;3.17;2.40;;;17.70;99.90;;;;;;6157109;23;20240;-85
2022/07/16 05:27:38;;;;;;;4.63;2.77;;;17.70;1.00;;;;;;6156945;23;20166;-85
2022/07/16 05:30:06;;;;;;;3.70;2.50;;;17.70;99.90;;;;;;6156269;23;20165;-83
2022/07/16 05:32:43;;;;;;;4.70;2.50;;;17.80;1.00;;;;;;6160416;23;20621;-85
2022/07/16 05:35:14;;;;;;;3.90;2.60;;;17.80;1.00;;;;;;6208715;23;20165;-85
2022/07/16 05:37:41;;;;;;;8.10;2.93;;;17.80;66.20;;;;;;6159499;23;20161;-83
2022/07/16 05:40:09;;;;;;;5.50;2.93;;;17.80;1.00;;;;;;6182842;23;20204;-84
2022/07/16 05:42:36;;;;;;;2.67;2.47;;;17.80;1.00;;;;;;6184044;23;20225;-85
2022/07/16 05:45:04;;;;;;;5.57;2.73;;;17.90;99.90;;;;;;6160109;23;20218;-84
2022/07/16 05:47:33;;;;;;;3.23;2.03;;;18.20;1.00;;;;;;6135831;23;20564;-84
2022/07/16 05:50:04;;;;;;;4.50;2.20;;;18.40;1.00;;;;;;6198503;23;20290;-85
2022/07/16 05:52:31;;;;;;;6.93;2.70;;;18.30;1.00;;;;;;6180078;23;20251;-83
2022/07/16 05:54:58;;;;;;;3.90;1.90;;;18.50;1.00;;;;;;6154377;23;20176;-84
2022/07/16 05:57:25;;;;;;;2.83;1.90;;;18.50;1.00;;;;;;6156351;23;20170;-85
2022/07/16 05:59:52;;;;;;;6.07;1.80;;;18.50;99.90;;;;;;6132697;23;20177;-84
2022/07/16 06:02:19;;;;;;;2.83;1.60;;;18.30;99.90;;;;;;6158516;23;20179;-85
2022/07/16 06:04:45;;;;;;;3.30;1.53;;;18.10;99.90;;;;;;6163275;23;20185;-83
2022/07/16 06:07:12;;;;;;;5.97;1.77;;;18.20;99.90;;;;;;6167482;23;20175;-85
2022/07/16 06:09:39;;;;;;;2.83;1.57;;;18.20;99.90;;;;;;6141113;23;20166;-84
2022/07/16 06:12:06;;;;;;;3.83;1.43;;;18.20;1.00;;;;;;6173982;23;20150;-84
2022/07/16 06:14:33;;;;;;;6.47;1.40;;;18.30;99.90;;;;;;6172256;23;20233;-82
2022/07/16 06:17:00;;;;;;;3.37;1.57;;;18.40;1.00;;;;;;6144863;23;20172;-85
2022/07/16 06:19:27;;;;;;;3.10;1.83;;;18.30;1.00;;;;;;6144462;23;20176;-84
2022/07/16 06:21:54;;;;;;;2.70;1.80;;;18.30;1.00;;;;;;6140188;23;20161;-84
2022/07/16 06:24:21;;;;;;;5.53;1.50;;;18.40;99.90;;;;;;6165050;23;20228;-85
2022/07/16 06:26:48;;;;;;;2.17;1.17;;;18.50;1.00;;;;;;6140282;23;20161;-85
2022/07/16 06:29:15;;;;;;;2.60;1.30;;;18.40;99.90;;;;;;6139133;23;20164;-83
2022/07/16 06:31:45;;;;;;;2.13;1.00;;;18.40;1.00;;;;;;6189184;23;20172;-84
2022/07/16 06:34:12;;;;;;;1.70;1.10;;;18.50;99.90;;;;;;6138365;23;20161;-85
2022/07/16 06:36:40;;;;;;;2.13;1.20;;;18.40;1.00;;;;;;6161179;23;20276;-83
2022/07/16 06:39:07;;;;;;;3.03;1.00;;;18.50;1.00;;;;;;6158136;23;20169;-83
2022/07/16 06:41:38;;;;;;;1.87;1.07;;;18.70;1.00;;;;;;6131974;23;20287;-85
2022/07/16 06:44:07;;;;;;;1.67;1.07;;;18.90;1.00;;;;;;6130928;23;20185;-84
2022/07/16 06:46:35;;;;;;;1.10;0.90;;;19.10;1.00;;;;;;6130498;23;20171;-84
2022/07/16 06:49:03;;;;;;;2.03;1.37;;;19.20;1.00;;;;;;6154391;23;20165;-83
2022/07/16 06:51:30;;;;;;;3.63;0.90;;;19.00;1.00;;;;;;6158966;23;20199;-84
2022/07/16 06:53:56;;;;;;;1.10;1.00;;;18.90;1.00;;;;;;6135375;23;20164;-85
2022/07/16 06:56:23;;;;;;;1.23;0.90;;;19.20;1.00;;;;;;6159904;23;20207;-85
2022/07/16 06:58:51;;;;;;;3.03;1.00;;;19.20;1.00;;;;;;6209319;23;20247;-80
2022/07/16 07:01:19;;;;;;;2.50;1.40;;;19.50;1.00;;;;;;6182465;23;20164;-82
2022/07/16 07:03:46;;;;;;;2.47;1.10;;;19.40;99.90;;;;;;6157683;23;20188;-82
2022/07/16 07:06:13;;;;;;;1.67;1.30;;;19.20;1.00;;;;;;6181331;23;20157;-80
2022/07/16 07:08:40;;;;;;;5.37;1.60;;;19.40;99.90;;;;;;6132010;23;20176;-85
2022/07/16 07:11:14;;;;;;;12.90;2.13;;;19.30;99.90;;;;;;6136572;23;20247;-83
2022/07/16 07:13:41;;;;;;;2.03;1.00;;;19.20;94.70;;;;;;6156902;23;20164;-82
2022/07/16 07:16:08;;;;;;;1.27;1.10;;;19.10;99.90;;;;;;6157982;23;20168;-85
2022/07/16 07:18:35;;;;;;;2.40;1.03;;;19.20;99.90;;;;;;6133501;23;20222;-84
2022/07/16 07:21:02;;;;;;;4.73;1.20;;;19.40;99.90;;;;;;6154983;23;20171;-82
2022/07/16 07:23:29;;;;;;;3.03;1.10;;;19.40;99.90;;;;;;6182928;23;20167;-85
2022/07/16 07:25:56;;;;;;;4.43;1.50;;;19.50;99.90;;;;;;6133193;23;20630;-85
2022/07/16 07:28:23;;;;;;;2.07;1.03;;;19.70;24.70;;;;;;6134713;23;20172;-84
2022/07/16 07:30:50;;;;;;;2.47;1.20;;;19.90;68.80;;;;;;6157727;23;20243;-86
2022/07/16 07:33:17;;;;;;;1.30;0.97;;;19.70;19.40;;;;;;6156415;23;20164;-85
2022/07/16 07:35:44;;;;;;;4.73;2.07;;;19.40;1.00;;;;;;6180030;23;20168;-82
2022/07/16 07:38:11;;;;;;;1.33;1.10;;;19.20;99.90;;;;;;6152621;23;20179;-83
2022/07/16 07:40:45;;;;;;;1.47;1.10;;;19.30;1.00;;;;;;6156705;23;20208;-82
2022/07/16 07:43:12;;;;;;;6.33;1.33;;;19.10;99.90;;;;;;6179601;23;20168;-83
2022/07/16 07:45:40;;;;;;;1.60;1.20;;;19.20;99.90;;;;;;6157608;23;20187;-84
2022/07/16 07:48:06;;;;;;;8.77;1.70;;;19.30;44.50;;;;;;6183878;23;20164;-84
2022/07/16 07:50:34;;;;;;;3.37;1.30;;;19.70;44.10;;;;;;6128567;23;20200;-84
2022/07/16 07:53:03;;;;;;;2.47;1.30;;;19.60;1.00;;;;;;6153176;23;20165;-84
2022/07/16 07:55:30;;;;;;;2.50;1.00;;;20.00;1.00;;;;;;6178777;23;20239;-85
2022/07/16 07:57:58;;;;;;;7.53;1.43;;;20.10;1.00;;;;;;6154473;23;20169;-84
2022/07/16 08:00:25;;;;;;;4.90;1.33;;;20.50;1.00;;;;;;6154787;23;20184;-85
2022/07/16 08:02:54;;;;;;;4.53;1.23;;;20.70;1.00;;;;;;6179205;23;20200;-83
2022/07/16 08:05:21;;;;;;;2.30;1.10;;;20.70;1.00;;;;;;6152874;23;20201;-85
2022/07/16 08:07:48;;;;;;;2.60;1.10;;;20.70;1.00;;;;;;6154694;23;20177;-85
2022/07/16 08:10:16;;;;;;;1.80;1.03;;;21.00;1.00;;;;;;6179805;23;20491;-84
2022/07/16 08:12:43;;;;;;;4.37;1.50;;;21.20;1.00;;;;;;6156619;23;20539;-85
2022/07/16 08:15:10;;;;;;;2.03;0.90;;;21.60;1.00;;;;;;6180577;23;20568;-83
2022/07/16 08:17:39;;;;;;;2.00;0.90;;;21.60;99.90;;;;;;6155164;23;20161;-84
2022/07/16 08:20:08;;;;;;;3.23;0.90;;;21.60;99.90;;;;;;6155311;23;20192;-85
2022/07/16 08:22:35;;;;;;;2.13;1.00;;;21.20;99.90;;;;;;6181500;23;20172;-85
2022/07/16 08:27:48;;;;;;;2.87;1.00;;;21.00;99.90;;;;;;6180335;23;20228;-85
2022/07/16 08:30:15;;;;;;;4.10;1.10;;;21.20;99.90;;;;;;6154820;23;20168;-84
2022/07/16 08:32:42;;;;;;;2.67;1.00;;;21.50;99.90;;;;;;6153460;23;20467;-82
2022/07/16 08:35:09;;;;;;;1.90;1.00;;;22.00;99.90;;;;;;6153968;23;20196;-80
2022/07/16 08:37:40;;;;;;;2.93;1.17;;;23.00;62.90;;;;;;6180212;23;20594;-80
2022/07/16 08:40:10;;;;;;;1.43;1.10;;;23.80;1.00;;;;;;6152835;23;20498;-80
2022/07/16 08:42:38;;;;;;;3.73;1.00;;;23.70;1.00;;;;;;6181501;23;20184;-80
2022/07/16 08:45:07;;;;;;;2.23;0.83;;;24.20;1.00;;;;;;6181486;23;20248;-80
2022/07/16 08:47:34;;;;;;;1.93;0.93;;;24.40;1.00;;;;;;6154381;23;20553;-79
2022/07/16 08:50:13;;;;;;;1.20;0.90;;;25.60;1.00;;;;;;6179932;23;20280;-79
2022/07/16 08:52:42;;;;;;;3.60;1.10;;;26.10;1.00;;;;;;6181060;23;20404;-79
2022/07/16 08:55:10;;;;;;;2.00;1.07;;;25.70;1.00;;;;;;6180015;23;20196;-79
2022/07/16 08:57:39;;;;;;;2.37;0.80;;;26.40;1.00;;;;;;6130283;23;20193;-80
2022/07/16 09:00:13;;;;;;;2.23;1.00;;;26.60;1.00;;;;;;6154563;23;20449;-80
2022/07/16 09:02:41;;;;;;;4.03;1.07;;;26.90;1.00;;;;;;6154558;23;20241;-79
2022/07/16 09:05:08;;;;;;;3.70;1.27;;;25.90;1.00;;;;;;6127774;23;20190;-82
2022/07/16 09:07:35;;;;;;;1.47;0.90;;;25.70;1.00;;;;;;6153333;23;20806;-79
2022/07/16 09:10:04;;;;;;;1.20;0.80;;;25.60;1.00;;;;;;6153101;23;20628;-79
2022/07/16 09:12:37;;;;;;;3.50;1.03;;;25.90;1.00;;;;;;6155388;23;20268;-79
2022/07/16 09:15:25;;;;;;;1.60;0.80;;;25.70;1.00;;;;;;6156290;23;20455;-79
2022/07/16 09:18:21;;;;;;;1.83;1.00;;;25.70;1.00;;;;;;6156525;23;20171;-79
2022/07/16 09:21:02;;;;;;;2.70;0.70;;;25.50;1.00;;;;;;6156619;23;20180;-79
2022/07/16 09:23:38;;;;;;;2.70;1.03;;;25.90;1.00;;;;;;6155379;23;20169;-81
2022/07/16 09:26:11;;;;;;;2.77;0.83;;;25.10;1.00;;;;;;6131418;23;20204;-78
2022/07/16 09:28:48;;;;;;;1.50;0.93;;;23.70;1.00;;;;;;6156281;23;20173;-81
2022/07/16 09:31:37;;;;;;;2.57;0.90;;;24.20;1.00;;;;;;6154701;23;20605;-81
2022/07/16 09:34:08;;;;;;;3.17;1.00;;;25.60;1.00;;;;;;6156077;23;20173;-80
2022/07/16 09:36:37;;;;;;;2.30;1.10;;;25.60;1.00;;;;;;6181961;23;20157;-81
2022/07/16 09:39:06;;;;;;;2.17;0.90;;;25.50;1.00;;;;;;6182033;23;20493;-80
2022/07/16 09:41:45;;;;;;;1.23;0.93;;;24.60;1.00;;;;;;6130936;23;20188;-80
2022/07/16 09:44:13;;;;;;;3.07;1.10;;;24.30;1.00;;;;;;6132214;23;20161;-81
2022/07/16 09:47:01;;;;;;;2.17;0.90;;;25.50;1.00;;;;;;6155759;23;20302;-81
2022/07/16 09:49:29;;;;;;;2.67;0.80;;;25.20;1.00;;;;;;6156028;23;20255;-81
2022/07/16 09:51:57;;;;;;;2.33;1.10;;;25.30;1.00;;;;;;6131623;23;20169;-81
2022/07/16 09:54:33;;;;;;;3.00;1.13;;;26.00;1.00;;;;;;6155472;23;20157;-81
2022/07/16 09:57:04;;;;;;;2.50;1.30;;;25.80;1.00;;;;;;6156534;23;20168;-81
2022/07/16 09:59:31;;;;;;;2.33;1.10;;;24.90;1.00;;;;;;6156126;23;20223;-80
2022/07/16 10:02:18;;;;;;;1.83;0.80;;;24.70;1.00;;;;;;6140519;23;20173;-80
2022/07/16 10:04:45;;;;;;;1.98;1.10;;;25.10;1.00;;;;;;6132623;23;20177;-80
2022/07/16 10:07:13;;;;;;;3.03;1.20;;;24.10;1.00;;;;;;6183750;23;20664;-80
2022/07/16 10:09:40;;;;;;;3.10;1.00;;;24.00;1.00;;;;;;6182727;23;20157;-80
2022/07/16 10:12:19;;;;;;;1.37;0.70;;;23.40;1.00;;;;;;6132198;23;20233;-80
2022/07/16 10:14:51;;;;;;;2.70;0.80;;;23.00;1.00;;;;;;6184134;23;20659;-80
2022/07/16 10:17:29;;;;;;;2.73;0.80;;;23.40;1.00;;;;;;6157638;23;20242;-80
2022/07/16 10:20:05;;;;;;;2.07;0.80;;;22.60;1.00;;;;;;6156718;23;20180;-80
2022/07/16 10:22:44;;;;;;;2.10;1.00;;;23.20;1.00;;;;;;6183215;23;20168;-80
2022/07/16 10:25:23;;;;;;;1.83;0.87;;;23.40;1.00;;;;;;6182354;23;20189;-80
2022/07/16 10:27:52;;;;;;;3.23;0.80;;;23.20;1.00;;;;;;6183584;23;20199;-80
2022/07/16 10:30:29;;;;;;;2.10;1.07;;;22.90;1.00;;;;;;6131746;23;20189;-81
2022/07/16 10:32:59;;;;;;;2.90;1.10;;;22.50;1.00;;;;;;6156477;23;20486;-80
2022/07/16 10:35:34;;;;;;;1.30;1.13;;;22.40;1.00;;;;;;6155507;23;20268;-80
2022/07/16 10:38:14;;;;;;;1.37;0.90;;;22.10;1.00;;;;;;6181160;23;20175;-80
2022/07/16 10:41:13;;;;;;;1.57;1.00;;;22.70;1.00;;;;;;6157126;23;20296;-80
2022/07/16 10:43:40;;;;;;;3.90;1.23;;;23.20;1.00;;;;;;6132354;23;20248;-80
2022/07/16 10:46:09;;;;;;;2.13;1.20;;;23.50;1.00;;;;;;6181213;23;20197;-81
2022/07/16 10:48:39;;;;;;;2.43;1.07;;;24.00;1.00;;;;;;6132767;23;20160;-80
2022/07/16 10:51:17;;;;;;;2.43;1.30;;;23.90;1.00;;;;;;6180784;23;20202;-80
2022/07/16 10:54:01;;;;;;;2.07;0.90;;;23.30;1.00;;;;;;6154312;23;20169;-81
2022/07/16 10:56:35;;;;;;;6.70;2.30;;;23.60;1.00;;;;;;6181260;23;20665;-80
2022/07/16 10:59:05;;;;;;;3.07;1.53;;;24.00;1.00;;;;;;6155524;23;20171;-80
2022/07/16 11:01:41;;;;;;;3.20;1.10;;;23.80;1.00;;;;;;6130274;23;20640;-81
2022/07/16 11:04:10;;;;;;;4.83;1.40;;;23.00;1.00;;;;;;6181536;23;20170;-80
2022/07/16 11:06:39;;;;;;;2.10;1.07;;;23.00;1.00;;;;;;6153379;23;20188;-80
2022/07/16 11:09:08;;;;;;;2.97;1.20;;;23.20;1.00;;;;;;6154114;23;20177;-80
2022/07/16 11:11:41;;;;;;;1.40;0.77;;;23.10;1.00;;;;;;6130795;23;20170;-80
2022/07/16 11:14:09;;;;;;;1.73;1.00;;;22.80;1.00;;;;;;6155575;23;20161;-80
2022/07/16 11:16:50;;;;;;;1.03;0.93;;;22.30;1.00;;;;;;6181093;23;20177;-79
2022/07/16 11:19:17;;;;;;;4.17;1.10;;;23.30;1.00;;;;;;6155421;23;20174;-79
2022/07/16 11:21:59;;;;;;;2.37;0.93;;;23.90;1.00;;;;;;6179496;23;20164;-80
2022/07/16 11:24:27;;;;;;;2.87;1.00;;;24.40;1.00;;;;;;6179646;23;20169;-81
2022/07/16 11:26:55;;;;;;;1.10;0.83;;;25.50;1.00;;;;;;6154633;23;20184;-80
2022/07/16 11:29:24;;;;;;;2.70;1.00;;;25.70;1.00;;;;;;6154822;23;20165;-80
2022/07/16 11:31:52;;;;;;;3.60;1.03;;;26.40;1.00;;;;;;6130945;23;20220;-80
2022/07/16 11:34:23;;;;;;;1.53;0.90;;;26.20;1.00;;;;;;6155242;23;20537;-79
2022/07/16 11:36:53;;;;;;;2.47;0.90;;;24.90;1.00;;;;;;6180453;23;20166;-80
2022/07/16 11:39:25;;;;;;;3.67;0.90;;;25.50;1.00;;;;;;6153831;23;20227;-80
2022/07/16 11:41:56;;;;;;;3.17;1.17;;;25.40;1.00;;;;;;6180908;23;20167;-80
2022/07/16 11:44:29;;;;;;;0.97;0.70;;;25.70;1.00;;;;;;6155491;23;20259;-80
2022/07/16 11:47:02;;;;;;;2.60;1.23;;;24.10;1.00;;;;;;6155095;23;20193;-79
2022/07/16 11:49:35;;;;;;;2.60;1.13;;;24.60;1.00;;;;;;6180633;23;20205;-80
2022/07/16 11:52:09;;;;;;;1.90;0.90;;;25.60;1.00;;;;;;6180109;23;20471;-79
2022/07/16 11:54:38;;;;;;;3.80;1.20;;;26.50;1.00;;;;;;6154434;23;20528;-79
2022/07/16 11:57:08;;;;;;;1.77;1.10;;;26.10;1.00;;;;;;6154530;23;20211;-80
2022/07/16 11:59:42;;;;;;;1.90;1.00;;;26.30;1.00;;;;;;6180796;23;20570;-80
2022/07/16 12:02:13;;;;;;;1.73;1.10;;;26.90;1.00;;;;;;6181271;23;20164;-80
2022/07/16 12:04:51;;;;;;;4.30;1.10;;;26.30;1.00;;;;;;6181214;23;20163;-80
2022/07/16 12:07:24;;;;;;;2.40;0.90;;;26.40;1.00;;;;;;6153764;23;20877;-80
2022/07/16 12:09:53;;;;;;;2.23;1.07;;;26.10;1.00;;;;;;6154201;23;21185;-80
2022/07/16 12:12:32;;;;;;;1.57;0.93;;;26.10;1.00;;;;;;6181247;23;20190;-79
2022/07/16 12:15:03;;;;;;;1.60;0.80;;;26.30;1.00;;;;;;6154871;23;20174;-80
2022/07/16 12:17:46;;;;;;;4.63;0.93;;;26.80;1.00;;;;;;6157487;23;20247;-80
2022/07/16 12:20:13;;;;;;;3.47;1.33;;;26.40;1.00;;;;;;6129896;23;20176;-80
2022/07/16 12:23:05;;;;;;;3.50;1.20;;;26.30;1.00;;;;;;6156540;23;20164;-79
2022/07/16 12:25:38;;;;;;;3.43;1.00;;;25.10;1.00;;;;;;6130197;23;20211;-80
2022/07/16 12:28:09;;;;;;;3.57;1.77;;;24.60;1.00;;;;;;6153964;23;20404;-80
2022/07/16 12:30:56;;;;;;;3.30;0.90;;;23.80;1.00;;;;;;6154481;23;20802;-79
2022/07/16 12:33:27;;;;;;;3.43;0.90;;;23.80;1.00;;;;;;6153928;23;20213;-79
2022/07/16 12:36:01;;;;;;;1.63;0.93;;;25.00;1.00;;;;;;6154312;23;20171;-80
2022/07/16 12:39:08;;;;;;;2.13;1.00;;;24.10;1.00;;;;;;6129648;23;20845;-80
2022/07/16 12:41:40;;;;;;;1.00;0.90;;;23.60;1.00;;;;;;6178394;23;20674;-81
2022/07/16 12:44:16;;;;;;;2.87;1.10;;;24.30;1.00;;;;;;6150697;23;20184;-80
2022/07/16 12:46:46;;;;;;;1.13;0.90;;;25.20;1.00;;;;;;6153509;23;20178;-80
2022/07/16 12:49:26;;;;;;;1.23;0.90;;;25.90;1.00;;;;;;6180475;23;20221;-80
2022/07/16 12:51:56;;;;;;;1.87;1.27;;;26.40;1.00;;;;;;6127203;23;20168;-80
2022/07/16 12:54:24;;;;;;;1.80;1.30;;;25.90;1.00;;;;;;6151713;23;20194;-80
2022/07/16 12:59:50;;;;;;;5.03;1.37;;;25.50;1.00;;;;;;6112397;23;20268;-80
2022/07/16 13:02:17;;;;;;;1.57;1.00;;;26.20;1.00;;;;;;6127357;23;20172;-80
2022/07/16 13:04:44;;;;;;;2.90;1.30;;;25.80;1.00;;;;;;6152412;23;20272;-81
2022/07/16 13:07:18;;;;;;;2.97;1.30;;;24.80;1.00;;;;;;6153365;23;20201;-80
2022/07/16 13:09:45;;;;;;;1.70;0.90;;;24.40;1.00;;;;;;6151680;23;20242;-80
2022/07/16 13:12:12;;;;;;;1.87;0.90;;;24.60;1.00;;;;;;6127375;23;20682;-80
2022/07/16 13:14:39;;;;;;;2.27;0.97;;;25.60;1.00;;;;;;6153906;23;20234;-80